sensor_id;sensor_type;location;lat;lon;timestamp;pressure;altitude;pressure_sealevel;temperature;humidity
62418;BME280;48456;54.242;10.280;2023-03-14T00:01:58;98438.44;;;8.88;100.00
62418;BME280;48456;54.242;10.280;2023-03-14T00:04:24;98431.50;;;8.85;100.00
62418;BME280;48456;54.242;10.280;2023-03-14T00:06:51;98436.75;;;8.85;100.00
62418;BME280;48456;54.242;10.280;2023-03-14T00:09:17;98447.44;;;8.82;100.00
62418;BME280;48456;54.242;10.280;2023-03-14T00:11:44;98439.63;;;8.79;100.00
62418;BME280;48456;54.242;10.280;2023-03-14T00:14:10;98437.00;;;8.79;100.00
62418;BME280;48456;54.242;10.280;2023-03-14T00:16:37;98454.44;;;8.83;100.00
62418;BME280;48456;54.242;10.280;2023-03-14T00:19:03;98446.41;;;8.86;100.00
62418;BME280;48456;54.242;10.280;2023-03-14T00:21:29;98445.50;;;8.87;100.00
62418;BME280;48456;54.242;10.280;2023-03-14T00:23:55;98449.16;;;8.83;100.00
62418;BME280;48456;54.242;10.280;2023-03-14T00:26:22;98450.00;;;8.83;100.00
62418;BME280;48456;54.242;10.280;2023-03-14T00:28:52;98441.34;;;8.80;100.00
62418;BME280;48456;54.242;10.280;2023-03-14T00:31:19;98444.91;;;8.79;100.00
62418;BME280;48456;54.242;10.280;2023-03-14T00:33:45;98439.72;;;8.76;100.00
62418;BME280;48456;54.242;10.280;2023-03-14T00:36:13;98442.31;;;8.77;100.00
62418;BME280;48456;54.242;10.280;2023-03-14T00:38:40;98448.38;;;8.79;100.00
62418;BME280;48456;54.242;10.280;2023-03-14T00:41:07;98441.28;;;8.81;100.00
62418;BME280;48456;54.242;10.280;2023-03-14T00:43:34;98428.91;;;8.83;100.00
62418;BME280;48456;54.242;10.280;2023-03-14T00:46:00;98435.16;;;8.81;100.00
62418;BME280;48456;54.242;10.280;2023-03-14T00:48:27;98431.81;;;8.76;100.00
62418;BME280;48456;54.242;10.280;2023-03-14T00:50:53;98438.94;;;8.74;100.00
62418;BME280;48456;54.242;10.280;2023-03-14T00:53:19;98424.16;;;8.69;100.00
62418;BME280;48456;54.242;10.280;2023-03-14T00:55:46;98429.28;;;8.73;100.00
62418;BME280;48456;54.242;10.280;2023-03-14T00:58:13;98431.03;;;8.74;100.00
62418;BME280;48456;54.242;10.280;2023-03-14T01:00:40;98425.03;;;8.68;100.00
62418;BME280;48456;54.242;10.280;2023-03-14T01:03:07;98417.09;;;8.70;100.00
62418;BME280;48456;54.242;10.280;2023-03-14T01:05:34;98407.56;;;8.66;100.00
62418;BME280;48456;54.242;10.280;2023-03-14T01:08:00;98407.59;;;8.64;100.00
62418;BME280;48456;54.242;10.280;2023-03-14T01:10:27;98413.75;;;8.65;100.00
62418;BME280;48456;54.242;10.280;2023-03-14T01:12:53;98400.81;;;8.58;100.00
62418;BME280;48456;54.242;10.280;2023-03-14T01:15:20;98394.38;;;8.66;100.00
62418;BME280;48456;54.242;10.280;2023-03-14T01:17:46;98385.63;;;8.65;100.00
62418;BME280;48456;54.242;10.280;2023-03-14T01:20:13;98403.13;;;8.68;100.00
62418;BME280;48456;54.242;10.280;2023-03-14T01:22:41;98400.47;;;8.68;100.00
62418;BME280;48456;54.242;10.280;2023-03-14T01:25:09;98389.25;;;8.63;100.00
62418;BME280;48456;54.242;10.280;2023-03-14T01:27:36;98397.78;;;8.69;100.00
62418;BME280;48456;54.242;10.280;2023-03-14T01:30:03;98411.84;;;8.68;100.00
62418;BME280;48456;54.242;10.280;2023-03-14T01:32:30;98411.72;;;8.73;100.00
62418;BME280;48456;54.242;10.280;2023-03-14T01:34:56;98412.63;;;8.72;100.00
62418;BME280;48456;54.242;10.280;2023-03-14T01:37:22;98417.03;;;8.71;100.00
62418;BME280;48456;54.242;10.280;2023-03-14T01:39:49;98404.34;;;8.83;100.00
62418;BME280;48456;54.242;10.280;2023-03-14T01:42:15;98408.19;;;8.98;100.00
62418;BME280;48456;54.242;10.280;2023-03-14T01:44:53;98403.75;;;8.99;100.00
62418;BME280;48456;54.242;10.280;2023-03-14T01:47:19;98416.00;;;9.01;100.00
62418;BME280;48456;54.242;10.280;2023-03-14T01:49:46;98415.72;;;9.09;100.00
62418;BME280;48456;54.242;10.280;2023-03-14T01:54:54;98396.13;;;9.16;100.00
62418;BME280;48456;54.242;10.280;2023-03-14T01:57:26;98393.63;;;9.12;100.00
62418;BME280;48456;54.242;10.280;2023-03-14T01:59:59;98399.66;;;9.15;100.00
62418;BME280;48456;54.242;10.280;2023-03-14T02:02:27;98392.78;;;9.11;100.00
62418;BME280;48456;54.242;10.280;2023-03-14T02:04:54;98386.81;;;9.06;100.00
62418;BME280;48456;54.242;10.280;2023-03-14T02:09:48;98371.22;;;9.00;100.00
62418;BME280;48456;54.242;10.280;2023-03-14T02:12:16;98368.66;;;8.98;100.00
62418;BME280;48456;54.242;10.280;2023-03-14T02:14:42;98359.91;;;8.96;100.00
62418;BME280;48456;54.242;10.280;2023-03-14T02:17:14;98344.09;;;8.96;100.00
62418;BME280;48456;54.242;10.280;2023-03-14T02:19:46;98338.13;;;8.91;100.00
62418;BME280;48456;54.242;10.280;2023-03-14T02:22:14;98334.81;;;8.86;100.00
62418;BME280;48456;54.242;10.280;2023-03-14T02:27:15;98338.13;;;8.91;100.00
62418;BME280;48456;54.242;10.280;2023-03-14T02:29:52;98339.75;;;8.95;100.00
62418;BME280;48456;54.242;10.280;2023-03-14T02:32:21;98345.91;;;8.95;100.00
62418;BME280;48456;54.242;10.280;2023-03-14T02:34:49;98353.91;;;8.92;100.00
62418;BME280;48456;54.242;10.280;2023-03-14T02:37:18;98350.25;;;8.96;100.00
62418;BME280;48456;54.242;10.280;2023-03-14T02:39:45;98352.06;;;8.94;100.00
62418;BME280;48456;54.242;10.280;2023-03-14T02:42:12;98333.50;;;8.97;100.00
62418;BME280;48456;54.242;10.280;2023-03-14T02:44:48;98332.75;;;8.94;100.00
62418;BME280;48456;54.242;10.280;2023-03-14T02:47:16;98336.44;;;8.90;100.00
62418;BME280;48456;54.242;10.280;2023-03-14T02:49:42;98335.75;;;8.84;100.00
62418;BME280;48456;54.242;10.280;2023-03-14T02:52:09;98327.91;;;8.83;100.00
62418;BME280;48456;54.242;10.280;2023-03-14T02:54:36;98329.56;;;8.86;100.00
62418;BME280;48456;54.242;10.280;2023-03-14T02:57:02;98323.41;;;8.85;100.00
62418;BME280;48456;54.242;10.280;2023-03-14T02:59:29;98320.91;;;8.82;100.00
62418;BME280;48456;54.242;10.280;2023-03-14T03:01:55;98317.44;;;8.80;100.00
62418;BME280;48456;54.242;10.280;2023-03-14T03:04:21;98313.94;;;8.79;100.00
62418;BME280;48456;54.242;10.280;2023-03-14T03:06:48;98325.00;;;8.89;100.00
62418;BME280;48456;54.242;10.280;2023-03-14T03:09:14;98316.06;;;8.93;100.00
62418;BME280;48456;54.242;10.280;2023-03-14T03:11:40;98322.28;;;8.92;100.00
62418;BME280;48456;54.242;10.280;2023-03-14T03:14:07;98318.03;;;8.88;100.00
62418;BME280;48456;54.242;10.280;2023-03-14T03:16:33;98319.75;;;8.89;100.00
62418;BME280;48456;54.242;10.280;2023-03-14T03:18:59;98317.78;;;8.94;100.00
62418;BME280;48456;54.242;10.280;2023-03-14T03:21:26;98329.88;;;9.00;100.00
62418;BME280;48456;54.242;10.280;2023-03-14T03:23:53;98322.94;;;8.97;100.00
62418;BME280;48456;54.242;10.280;2023-03-14T03:26:19;98331.84;;;8.95;100.00
62418;BME280;48456;54.242;10.280;2023-03-14T03:28:45;98323.06;;;8.94;100.00
62418;BME280;48456;54.242;10.280;2023-03-14T03:31:12;98328.31;;;8.94;100.00
62418;BME280;48456;54.242;10.280;2023-03-14T03:33:39;98326.66;;;8.92;100.00
62418;BME280;48456;54.242;10.280;2023-03-14T03:36:05;98323.97;;;8.93;100.00
62418;BME280;48456;54.242;10.280;2023-03-14T03:38:32;98315.16;;;8.94;100.00
62418;BME280;48456;54.242;10.280;2023-03-14T03:41:01;98326.47;;;8.98;100.00
62418;BME280;48456;54.242;10.280;2023-03-14T03:43:28;98327.19;;;9.02;100.00
62418;BME280;48456;54.242;10.280;2023-03-14T03:45:54;98319.84;;;9.10;100.00
62418;BME280;48456;54.242;10.280;2023-03-14T03:48:20;98319.69;;;9.15;100.00
62418;BME280;48456;54.242;10.280;2023-03-14T03:50:47;98311.41;;;9.24;100.00
62418;BME280;48456;54.242;10.280;2023-03-14T03:53:13;98305.16;;;9.27;100.00
62418;BME280;48456;54.242;10.280;2023-03-14T03:55:48;98301.72;;;9.25;100.00
62418;BME280;48456;54.242;10.280;2023-03-14T03:58:14;98313.22;;;9.22;100.00
62418;BME280;48456;54.242;10.280;2023-03-14T04:00:41;98317.66;;;9.21;100.00
62418;BME280;48456;54.242;10.280;2023-03-14T04:03:07;98330.34;;;8.88;100.00
62418;BME280;48456;54.242;10.280;2023-03-14T04:05:34;98352.25;;;8.39;100.00
62418;BME280;48456;54.242;10.280;2023-03-14T04:08:01;98352.81;;;8.22;100.00
62418;BME280;48456;54.242;10.280;2023-03-14T04:10:27;98722.97;;;8.02;100.00
62418;BME280;48456;54.242;10.280;2023-03-14T04:12:54;98842.31;;;8.02;100.00
62418;BME280;48456;54.242;10.280;2023-03-14T04:15:20;98887.09;;;8.02;100.00
62418;BME280;48456;54.242;10.280;2023-03-14T04:17:47;98899.47;;;7.99;100.00
62418;BME280;48456;54.242;10.280;2023-03-14T04:20:13;98887.28;;;7.95;100.00
62418;BME280;48456;54.242;10.280;2023-03-14T04:22:39;98868.91;;;7.91;100.00
62418;BME280;48456;54.242;10.280;2023-03-14T04:25:08;98860.22;;;7.89;100.00
62418;BME280;48456;54.242;10.280;2023-03-14T04:27:35;98858.53;;;7.87;100.00
62418;BME280;48456;54.242;10.280;2023-03-14T04:30:03;98857.72;;;7.83;100.00
62418;BME280;48456;54.242;10.280;2023-03-14T04:32:29;98863.84;;;7.84;100.00
62418;BME280;48456;54.242;10.280;2023-03-14T04:34:56;98843.88;;;7.75;100.00
62418;BME280;48456;54.242;10.280;2023-03-14T04:37:22;98837.03;;;7.67;100.00
62418;BME280;48456;54.242;10.280;2023-03-14T04:39:48;98809.31;;;7.54;100.00
62418;BME280;48456;54.242;10.280;2023-03-14T04:42:15;98794.59;;;7.45;100.00
62418;BME280;48456;54.242;10.280;2023-03-14T04:44:41;98789.47;;;7.39;100.00
62418;BME280;48456;54.242;10.280;2023-03-14T04:47:09;98776.47;;;7.33;100.00
62418;BME280;48456;54.242;10.280;2023-03-14T04:49:35;98801.00;;;7.33;100.00
62418;BME280;48456;54.242;10.280;2023-03-14T04:52:02;98777.47;;;7.27;100.00
62418;BME280;48456;54.242;10.280;2023-03-14T04:54:28;98773.19;;;7.23;100.00
62418;BME280;48456;54.242;10.280;2023-03-14T04:56:54;98758.50;;;7.14;100.00
62418;BME280;48456;54.242;10.280;2023-03-14T04:59:21;98754.16;;;7.11;100.00
62418;BME280;48456;54.242;10.280;2023-03-14T05:01:47;98749.00;;;7.07;100.00
62418;BME280;48456;54.242;10.280;2023-03-14T05:04:16;98759.53;;;7.07;100.00
62418;BME280;48456;54.242;10.280;2023-03-14T05:06:42;98753.53;;;7.01;100.00
62418;BME280;48456;54.242;10.280;2023-03-14T05:09:08;98745.75;;;6.95;100.00
62418;BME280;48456;54.242;10.280;2023-03-14T05:11:35;98751.00;;;6.95;100.00
62418;BME280;48456;54.242;10.280;2023-03-14T05:14:01;98760.69;;;6.95;100.00
62418;BME280;48456;54.242;10.280;2023-03-14T05:16:28;98756.34;;;6.92;100.00
62418;BME280;48456;54.242;10.280;2023-03-14T05:18:54;98749.47;;;6.86;100.00
62418;BME280;48456;54.242;10.280;2023-03-14T05:21:20;98731.22;;;6.79;100.00
62418;BME280;48456;54.242;10.280;2023-03-14T05:23:47;98719.16;;;6.71;100.00
62418;BME280;48456;54.242;10.280;2023-03-14T05:26:13;98720.94;;;6.68;100.00
62418;BME280;48456;54.242;10.280;2023-03-14T05:28:40;98716.63;;;6.65;100.00
62418;BME280;48456;54.242;10.280;2023-03-14T05:31:06;98719.28;;;6.63;100.00
62418;BME280;48456;54.242;10.280;2023-03-14T05:33:33;98722.84;;;6.61;100.00
62418;BME280;48456;54.242;10.280;2023-03-14T05:35:59;98736.91;;;6.60;100.00
62418;BME280;48456;54.242;10.280;2023-03-14T05:38:25;98733.41;;;6.58;100.00
62418;BME280;48456;54.242;10.280;2023-03-14T05:40:52;98731.72;;;6.55;100.00
62418;BME280;48456;54.242;10.280;2023-03-14T05:43:18;98729.19;;;6.52;100.00
62418;BME280;48456;54.242;10.280;2023-03-14T05:45:44;98729.22;;;6.50;100.00
62418;BME280;48456;54.242;10.280;2023-03-14T05:48:11;98741.47;;;6.50;100.00
62418;BME280;48456;54.242;10.280;2023-03-14T05:50:46;98752.81;;;6.52;100.00
62418;BME280;48456;54.242;10.280;2023-03-14T05:53:12;98778.13;;;6.56;100.00
62418;BME280;48456;54.242;10.280;2023-03-14T05:55:38;98792.09;;;6.58;100.00
62418;BME280;48456;54.242;10.280;2023-03-14T05:58:05;98802.53;;;6.61;100.00
62418;BME280;48456;54.242;10.280;2023-03-14T06:00:31;98806.91;;;6.62;100.00
62418;BME280;48456;54.242;10.280;2023-03-14T06:02:58;98818.31;;;6.61;100.00
62418;BME280;48456;54.242;10.280;2023-03-14T06:05:24;98818.31;;;6.61;100.00
62418;BME280;48456;54.242;10.280;2023-03-14T06:07:50;98828.88;;;6.58;100.00
62418;BME280;48456;54.242;10.280;2023-03-14T06:10:17;98821.00;;;6.57;100.00
62418;BME280;48456;54.242;10.280;2023-03-14T06:12:43;98848.91;;;6.64;100.00
62418;BME280;48456;54.242;10.280;2023-03-14T06:15:10;98870.72;;;6.68;100.00
62418;BME280;48456;54.242;10.280;2023-03-14T06:17:36;98883.00;;;6.67;100.00
62418;BME280;48456;54.242;10.280;2023-03-14T06:20:02;98892.59;;;6.70;100.00
62418;BME280;48456;54.242;10.280;2023-03-14T06:22:29;98900.41;;;6.73;100.00
62418;BME280;48456;54.242;10.280;2023-03-14T06:24:55;98923.03;;;6.80;100.00
62418;BME280;48456;54.242;10.280;2023-03-14T06:27:21;98926.53;;;6.82;100.00
62418;BME280;48456;54.242;10.280;2023-03-14T06:29:48;98940.50;;;6.84;100.00
62418;BME280;48456;54.242;10.280;2023-03-14T06:32:14;98954.44;;;6.88;100.00
62418;BME280;48456;54.242;10.280;2023-03-14T06:34:40;98970.13;;;6.93;100.00
62418;BME280;48456;54.242;10.280;2023-03-14T06:37:07;98983.09;;;7.02;100.00
62418;BME280;48456;54.242;10.280;2023-03-14T06:39:33;98995.31;;;7.05;100.00
62418;BME280;48456;54.242;10.280;2023-03-14T06:42:00;98990.94;;;7.04;100.00
62418;BME280;48456;54.242;10.280;2023-03-14T06:44:26;98992.56;;;7.11;100.00
62418;BME280;48456;54.242;10.280;2023-03-14T06:46:52;98998.44;;;7.24;100.00
62418;BME280;48456;54.242;10.280;2023-03-14T06:49:19;98984.22;;;7.34;100.00
62418;BME280;48456;54.242;10.280;2023-03-14T06:51:45;98977.06;;;7.41;100.00
62418;BME280;48456;54.242;10.280;2023-03-14T06:54:11;98969.97;;;7.45;100.00
62418;BME280;48456;54.242;10.280;2023-03-14T06:56:38;98965.63;;;7.44;100.00
62418;BME280;48456;54.242;10.280;2023-03-14T06:59:04;98955.06;;;7.45;100.00
62418;BME280;48456;54.242;10.280;2023-03-14T07:01:31;98961.16;;;7.47;100.00
62418;BME280;48456;54.242;10.280;2023-03-14T07:04:01;98956.75;;;7.48;100.00
62418;BME280;48456;54.242;10.280;2023-03-14T07:06:28;98300.00;;;7.47;100.00
62418;BME280;48456;54.242;10.280;2023-03-14T07:08:57;98434.16;;;7.47;100.00
62418;BME280;48456;54.242;10.280;2023-03-14T07:11:23;98443.81;;;7.46;100.00
62418;BME280;48456;54.242;10.280;2023-03-14T07:13:50;98462.94;;;7.51;100.00
62418;BME280;48456;54.242;10.280;2023-03-14T07:16:16;98429.06;;;7.40;100.00
62418;BME280;48456;54.242;10.280;2023-03-14T07:18:43;98476.16;;;7.50;100.00
62418;BME280;48456;54.242;10.280;2023-03-14T07:21:09;98479.69;;;7.49;100.00
62418;BME280;48456;54.242;10.280;2023-03-14T07:23:36;98490.16;;;7.50;100.00
62418;BME280;48456;54.242;10.280;2023-03-14T07:26:02;98494.63;;;7.48;100.00
62418;BME280;48456;54.242;10.280;2023-03-14T07:28:28;98500.69;;;7.50;100.00
62418;BME280;48456;54.242;10.280;2023-03-14T07:30:55;98534.75;;;7.55;100.00
62418;BME280;48456;54.242;10.280;2023-03-14T07:33:21;98548.69;;;7.59;100.00
62418;BME280;48456;54.242;10.280;2023-03-14T07:35:48;98561.81;;;7.60;100.00
62418;BME280;48456;54.242;10.280;2023-03-14T07:38:14;98580.16;;;7.63;100.00
62418;BME280;48456;54.242;10.280;2023-03-14T07:40:41;98601.09;;;7.66;100.00
62418;BME280;48456;54.242;10.280;2023-03-14T07:43:07;98624.66;;;7.71;100.00
62418;BME280;48456;54.242;10.280;2023-03-14T07:45:33;98644.72;;;7.75;100.00
62418;BME280;48456;54.242;10.280;2023-03-14T07:48:07;98654.22;;;7.81;100.00
62418;BME280;48456;54.242;10.280;2023-03-14T07:50:34;98700.38;;;7.93;100.00
62418;BME280;48456;54.242;10.280;2023-03-14T07:53:00;98691.72;;;7.89;100.00
62418;BME280;48456;54.242;10.280;2023-03-14T07:55:27;98694.41;;;7.88;100.00
62418;BME280;48456;54.242;10.280;2023-03-14T07:57:53;98685.81;;;7.81;100.00
62418;BME280;48456;54.242;10.280;2023-03-14T08:00:19;98696.34;;;7.81;100.00
62418;BME280;48456;54.242;10.280;2023-03-14T08:02:46;98691.13;;;7.78;100.00
62418;BME280;48456;54.242;10.280;2023-03-14T08:05:12;98713.03;;;7.80;100.00
62418;BME280;48456;54.242;10.280;2023-03-14T08:07:38;98720.81;;;7.83;100.00
62418;BME280;48456;54.242;10.280;2023-03-14T08:10:05;98727.00;;;7.82;100.00
62418;BME280;48456;54.242;10.280;2023-03-14T08:12:32;98723.59;;;7.78;100.00
62418;BME280;48456;54.242;10.280;2023-03-14T08:14:58;98737.59;;;7.79;100.00
62418;BME280;48456;54.242;10.280;2023-03-14T08:17:25;98766.38;;;7.87;100.00
62418;BME280;48456;54.242;10.280;2023-03-14T08:19:54;98789.91;;;7.93;100.00
62418;BME280;48456;54.242;10.280;2023-03-14T08:22:20;98763.84;;;7.82;100.00
62418;BME280;48456;54.242;10.280;2023-03-14T08:24:46;98759.53;;;7.79;100.00
62418;BME280;48456;54.242;10.280;2023-03-14T08:27:13;98757.88;;;7.75;100.00
62418;BME280;48456;54.242;10.280;2023-03-14T08:29:41;98757.00;;;7.75;100.00
62418;BME280;48456;54.242;10.280;2023-03-14T08:32:08;98721.41;;;7.61;100.00
62418;BME280;48456;54.242;10.280;2023-03-14T08:34:34;98745.88;;;7.65;100.00
62418;BME280;48456;54.242;10.280;2023-03-14T08:37:00;98734.50;;;7.63;100.00
62418;BME280;48456;54.242;10.280;2023-03-14T08:39:31;98750.22;;;7.66;100.00
62418;BME280;48456;54.242;10.280;2023-03-14T08:41:57;98750.34;;;7.61;100.00
62418;BME280;48456;54.242;10.280;2023-03-14T08:44:24;98758.16;;;7.64;100.00
62418;BME280;48456;54.242;10.280;2023-03-14T08:46:50;98763.44;;;7.64;100.00
62418;BME280;48456;54.242;10.280;2023-03-14T08:49:17;98757.47;;;7.58;100.00
62418;BME280;48456;54.242;10.280;2023-03-14T08:51:43;98766.19;;;7.58;100.00
62418;BME280;48456;54.242;10.280;2023-03-14T08:54:10;98775.81;;;7.61;100.00
62418;BME280;48456;54.242;10.280;2023-03-14T08:56:36;98784.59;;;7.60;100.00
62418;BME280;48456;54.242;10.280;2023-03-14T08:59:06;98796.84;;;7.61;100.00
62418;BME280;48456;54.242;10.280;2023-03-14T09:01:32;98788.16;;;7.57;100.00
62418;BME280;48456;54.242;10.280;2023-03-14T09:03:59;98793.41;;;7.57;100.00
62418;BME280;48456;54.242;10.280;2023-03-14T09:06:25;98789.09;;;7.54;100.00
62418;BME280;48456;54.242;10.280;2023-03-14T09:08:51;98786.59;;;7.50;100.00
62418;BME280;48456;54.242;10.280;2023-03-14T09:11:18;98793.59;;;7.51;100.00
62418;BME280;48456;54.242;10.280;2023-03-14T09:13:44;98808.47;;;7.52;100.00
62418;BME280;48456;54.242;10.280;2023-03-14T09:16:11;98810.34;;;7.47;100.00
62418;BME280;48456;54.242;10.280;2023-03-14T09:18:37;98689.50;;;7.04;100.00
62418;BME280;48456;54.242;10.280;2023-03-14T09:21:03;98460.28;;;6.20;100.00
62418;BME280;48456;54.242;10.280;2023-03-14T09:23:30;98318.63;;;5.42;100.00
62418;BME280;48456;54.242;10.280;2023-03-14T09:25:57;98513.22;;;4.64;100.00
62418;BME280;48456;54.242;10.280;2023-03-14T09:28:24;98701.78;;;3.96;100.00
62418;BME280;48456;54.242;10.280;2023-03-14T09:30:50;98709.91;;;3.67;100.00
62418;BME280;48456;54.242;10.280;2023-03-14T09:33:17;98724.09;;;3.37;100.00
62418;BME280;48456;54.242;10.280;2023-03-14T09:35:44;98719.88;;;3.22;100.00
62418;BME280;48456;54.242;10.280;2023-03-14T09:38:10;98719.97;;;3.10;100.00
62418;BME280;48456;54.242;10.280;2023-03-14T09:40:37;98718.31;;;2.99;100.00
62418;BME280;48456;54.242;10.280;2023-03-14T09:43:04;98738.34;;;2.96;100.00
62418;BME280;48456;54.242;10.280;2023-03-14T09:48:00;98760.16;;;2.90;100.00
62418;BME280;48456;54.242;10.280;2023-03-14T09:50:31;98768.91;;;2.84;100.00
62418;BME280;48456;54.242;10.280;2023-03-14T09:53:00;98779.41;;;2.70;100.00
62418;BME280;48456;54.242;10.280;2023-03-14T09:55:28;98796.84;;;2.60;100.00
62418;BME280;48456;54.242;10.280;2023-03-14T09:57:56;98808.19;;;2.63;100.00
62418;BME280;48456;54.242;10.280;2023-03-14T10:00:25;98817.78;;;2.46;100.00
62418;BME280;48456;54.242;10.280;2023-03-14T10:02:58;98818.69;;;2.30;100.00
62418;BME280;48456;54.242;10.280;2023-03-14T10:05:28;98816.16;;;2.17;100.00
62418;BME280;48456;54.242;10.280;2023-03-14T10:07:55;98825.72;;;2.07;100.00
62418;BME280;48456;54.242;10.280;2023-03-14T10:10:23;98833.53;;;2.01;100.00
62418;BME280;48456;54.242;10.280;2023-03-14T10:15:35;98837.03;;;1.77;100.00
62418;BME280;48456;54.242;10.280;2023-03-14T10:18:03;98844.00;;;1.75;100.00
62418;BME280;48456;54.242;10.280;2023-03-14T10:23:00;98850.94;;;1.71;100.00
62418;BME280;48456;54.242;10.280;2023-03-14T10:25:28;98855.28;;;1.74;100.00
62418;BME280;48456;54.242;10.280;2023-03-14T10:27:54;98876.16;;;1.78;100.00
62418;BME280;48456;54.242;10.280;2023-03-14T10:30:55;98890.91;;;1.79;100.00
62418;BME280;48456;54.242;10.280;2023-03-14T10:35:40;98923.09;;;2.17;100.00
62418;BME280;48456;54.242;10.280;2023-03-14T10:38:10;98930.03;;;2.25;100.00
62418;BME280;48456;54.242;10.280;2023-03-14T10:40:40;98954.41;;;2.39;100.00
62418;BME280;48456;54.242;10.280;2023-03-14T10:43:13;98959.59;;;2.42;100.00
62418;BME280;48456;54.242;10.280;2023-03-14T10:45:41;98954.38;;;2.34;100.00
62418;BME280;48456;54.242;10.280;2023-03-14T10:50:48;98977.88;;;2.39;100.00
62418;BME280;48456;54.242;10.280;2023-03-14T10:53:16;98990.94;;;2.50;100.00
62418;BME280;48456;54.242;10.280;2023-03-14T10:55:43;98994.38;;;2.49;100.00
62418;BME280;48456;54.242;10.280;2023-03-14T10:58:24;99003.97;;;2.58;100.00
62418;BME280;48456;54.242;10.280;2023-03-14T11:00:52;99008.31;;;2.62;100.00
62418;BME280;48456;54.242;10.280;2023-03-14T11:03:20;99024.81;;;2.80;100.00
62418;BME280;48456;54.242;10.280;2023-03-14T11:06:33;99039.59;;;2.95;100.00
62418;BME280;48456;54.242;10.280;2023-03-14T11:11:25;99043.06;;;3.06;100.00
62418;BME280;48456;54.242;10.280;2023-03-14T11:13:54;99054.41;;;3.07;100.00
62418;BME280;48456;54.242;10.280;2023-03-14T11:19:03;99070.00;;;3.33;100.00
62418;BME280;48456;54.242;10.280;2023-03-14T11:29:26;99090.88;;;3.46;100.00
62418;BME280;48456;54.242;10.280;2023-03-14T11:31:55;99103.88;;;3.66;100.00
62418;BME280;48456;54.242;10.280;2023-03-14T11:36:51;99122.19;;;3.74;100.00
62418;BME280;48456;54.242;10.280;2023-03-14T11:39:20;99137.78;;;3.97;100.00
62418;BME280;48456;54.242;10.280;2023-03-14T11:41:47;99160.31;;;4.31;100.00
62418;BME280;48456;54.242;10.280;2023-03-14T11:44:57;99172.44;;;4.49;100.00
62418;BME280;48456;54.242;10.280;2023-03-14T11:52:30;99170.97;;;3.92;100.00
62418;BME280;48456;54.242;10.280;2023-03-14T11:55:07;99182.22;;;4.10;100.00
62418;BME280;48456;54.242;10.280;2023-03-14T11:57:37;99188.28;;;4.20;100.00
62418;BME280;48456;54.242;10.280;2023-03-14T12:00:21;99176.13;;;4.05;100.00
62418;BME280;48456;54.242;10.280;2023-03-14T12:05:36;99174.47;;;3.83;100.00
62418;BME280;48456;54.242;10.280;2023-03-14T12:13:03;99186.66;;;3.86;100.00
62418;BME280;48456;54.242;10.280;2023-03-14T12:15:30;99189.31;;;3.78;100.00
62418;BME280;48456;54.242;10.280;2023-03-14T12:17:56;99200.59;;;3.97;100.00
62418;BME280;48456;54.242;10.280;2023-03-14T12:20:23;99203.19;;;3.99;100.00
62418;BME280;48456;54.242;10.280;2023-03-14T12:22:51;99199.69;;;3.98;100.00
62418;BME280;48456;54.242;10.280;2023-03-14T12:25:20;99178.81;;;3.90;100.00
62418;BME280;48456;54.242;10.280;2023-03-14T12:38:03;99084.69;;;3.78;100.00
62418;BME280;48456;54.242;10.280;2023-03-14T12:40:38;99026.31;;;3.62;100.00
62418;BME280;48456;54.242;10.280;2023-03-14T12:43:24;99039.38;;;3.68;100.00
62418;BME280;48456;54.242;10.280;2023-03-14T12:46:08;99057.63;;;3.77;100.00
62418;BME280;48456;54.242;10.280;2023-03-14T12:48:34;99266.03;;;3.69;100.00
62418;BME280;48456;54.242;10.280;2023-03-14T12:51:04;99281.72;;;3.83;100.00
62418;BME280;48456;54.242;10.280;2023-03-14T13:01:05;99280.84;;;3.70;100.00
62418;BME280;48456;54.242;10.280;2023-03-14T13:03:55;99302.63;;;3.71;100.00
62418;BME280;48456;54.242;10.280;2023-03-14T13:09:34;99324.41;;;3.98;100.00
62418;BME280;48456;54.242;10.280;2023-03-14T13:11:56;99325.28;;;4.12;100.00
62418;BME280;48456;54.242;10.280;2023-03-14T13:14:27;99347.91;;;4.32;100.00
62418;BME280;48456;54.242;10.280;2023-03-14T13:16:54;99347.88;;;4.51;100.00
62418;BME280;48456;54.242;10.280;2023-03-14T13:19:24;99349.63;;;4.55;100.00
62418;BME280;48456;54.242;10.280;2023-03-14T13:21:56;99218.81;;;4.13;100.00
62418;BME280;48456;54.242;10.280;2023-03-14T13:24:26;99167.53;;;3.63;100.00
62418;BME280;48456;54.242;10.280;2023-03-14T13:26:56;99182.38;;;3.50;100.00
62418;BME280;48456;54.242;10.280;2023-03-14T13:29:24;99183.28;;;3.37;100.00
62418;BME280;48456;54.242;10.280;2023-03-14T13:31:55;99191.97;;;3.34;100.00
62418;BME280;48456;54.242;10.280;2023-03-14T13:34:31;99198.03;;;3.69;100.00
62418;BME280;48456;54.242;10.280;2023-03-14T13:36:57;99203.25;;;3.69;100.00
62418;BME280;48456;54.242;10.280;2023-03-14T13:39:24;99210.19;;;3.92;100.00
62418;BME280;48456;54.242;10.280;2023-03-14T13:41:52;99221.47;;;4.08;100.00
62418;BME280;48456;54.242;10.280;2023-03-14T13:44:35;99230.13;;;4.31;100.00
62418;BME280;48456;54.242;10.280;2023-03-14T13:47:02;99212.78;;;3.98;100.00
62418;BME280;48456;54.242;10.280;2023-03-14T13:49:30;99243.34;;;3.81;100.00
62418;BME280;48456;54.242;10.280;2023-03-14T13:51:58;99247.72;;;3.57;100.00
62418;BME280;48456;54.242;10.280;2023-03-14T13:54:25;99258.19;;;3.72;100.00
62418;BME280;48456;54.242;10.280;2023-03-14T13:56:59;99265.13;;;3.83;100.00
62418;BME280;48456;54.242;10.280;2023-03-14T14:01:52;99268.59;;;3.91;100.00
62418;BME280;48456;54.242;10.280;2023-03-14T14:04:19;99279.09;;;3.79;100.00
62418;BME280;48456;54.242;10.280;2023-03-14T14:06:55;99280.81;;;3.98;100.00